sensor_id;sensor_type;location;lat;lon;timestamp;pressure;altitude;pressure_sealevel;temperature;humidity
14253;BME280;7210;51.502;10.722;2023-03-07T00:02:03;98042.13;;;0.39;100.00
14253;BME280;7210;51.502;10.722;2023-03-07T00:04:30;98039.31;;;0.47;100.00
14253;BME280;7210;51.502;10.722;2023-03-07T00:06:58;98038.50;;;0.53;100.00
14253;BME280;7210;51.502;10.722;2023-03-07T00:09:26;98025.53;;;0.53;100.00
14253;BME280;7210;51.502;10.722;2023-03-07T00:11:53;98032.50;;;0.53;100.00
14253;BME280;7210;51.502;10.722;2023-03-07T00:14:20;98030.53;;;0.55;100.00
14253;BME280;7210;51.502;10.722;2023-03-07T00:16:49;98022.13;;;0.59;100.00
14253;BME280;7210;51.502;10.722;2023-03-07T00:19:16;98013.31;;;0.60;100.00
14253;BME280;7210;51.502;10.722;2023-03-07T00:21:47;98009.72;;;0.61;100.00
14253;BME280;7210;51.502;10.722;2023-03-07T00:24:21;98010.50;;;0.62;100.00
14253;BME280;7210;51.502;10.722;2023-03-07T00:26:49;97992.91;;;0.64;100.00
14253;BME280;7210;51.502;10.722;2023-03-07T00:29:16;97997.66;;;0.73;100.00
14253;BME280;7210;51.502;10.722;2023-03-07T00:31:43;97994.47;;;0.71;100.00
14253;BME280;7210;51.502;10.722;2023-03-07T00:34:14;97986.69;;;0.71;100.00
14253;BME280;7210;51.502;10.722;2023-03-07T00:36:41;97981.09;;;0.74;100.00
14253;BME280;7210;51.502;10.722;2023-03-07T00:39:08;97974.47;;;0.78;100.00
14253;BME280;7210;51.502;10.722;2023-03-07T00:41:37;97967.69;;;0.77;100.00
14253;BME280;7210;51.502;10.722;2023-03-07T00:44:04;97955.25;;;0.79;100.00
14253;BME280;7210;51.502;10.722;2023-03-07T00:46:32;97952.03;;;0.84;100.00
14253;BME280;7210;51.502;10.722;2023-03-07T00:48:59;97952.28;;;0.82;100.00
14253;BME280;7210;51.502;10.722;2023-03-07T00:51:26;97940.06;;;0.83;100.00
14253;BME280;7210;51.502;10.722;2023-03-07T00:53:53;97937.84;;;0.86;100.00
14253;BME280;7210;51.502;10.722;2023-03-07T00:56:23;97934.47;;;0.86;100.00
14253;BME280;7210;51.502;10.722;2023-03-07T00:58:52;97926.66;;;0.86;100.00
14253;BME280;7210;51.502;10.722;2023-03-07T01:01:22;97874.53;;;0.61;100.00
14253;BME280;7210;51.502;10.722;2023-03-07T01:03:51;97912.41;;;0.88;100.00
14253;BME280;7210;51.502;10.722;2023-03-07T01:06:21;97911.59;;;0.94;100.00
14253;BME280;7210;51.502;10.722;2023-03-07T01:08:50;97897.59;;;0.95;100.00
14253;BME280;7210;51.502;10.722;2023-03-07T01:11:17;97897.19;;;0.98;100.00
14253;BME280;7210;51.502;10.722;2023-03-07T01:13:45;97896.97;;;1.00;100.00
14253;BME280;7210;51.502;10.722;2023-03-07T01:16:17;97884.75;;;1.00;100.00
14253;BME280;7210;51.502;10.722;2023-03-07T01:18:48;97881.16;;;1.01;100.00
14253;BME280;7210;51.502;10.722;2023-03-07T01:21:19;97880.72;;;1.04;100.00
14253;BME280;7210;51.502;10.722;2023-03-07T01:23:47;97868.34;;;1.06;100.00
14253;BME280;7210;51.502;10.722;2023-03-07T01:26:17;97863.06;;;1.13;100.00
14253;BME280;7210;51.502;10.722;2023-03-07T01:28:45;97861.47;;;1.12;100.00
14253;BME280;7210;51.502;10.722;2023-03-07T01:31:14;97848.84;;;1.15;100.00
14253;BME280;7210;51.502;10.722;2023-03-07T01:33:41;97842.44;;;1.18;100.00
14253;BME280;7210;51.502;10.722;2023-03-07T01:36:16;97829.81;;;1.21;100.00
14253;BME280;7210;51.502;10.722;2023-03-07T01:38:46;97822.59;;;1.23;100.00
14253;BME280;7210;51.502;10.722;2023-03-07T01:41:14;97805.59;;;1.21;100.00
14253;BME280;7210;51.502;10.722;2023-03-07T01:43:43;97792.13;;;1.24;100.00
14253;BME280;7210;51.502;10.722;2023-03-07T01:46:49;97783.72;;;1.28;100.00
14253;BME280;7210;51.502;10.722;2023-03-07T01:49:27;97777.28;;;1.31;100.00
14253;BME280;7210;51.502;10.722;2023-03-07T01:52:05;97777.66;;;1.34;100.00
14253;BME280;7210;51.502;10.722;2023-03-07T01:54:39;97761.56;;;1.44;100.00
14253;BME280;7210;51.502;10.722;2023-03-07T01:57:17;97749.47;;;1.49;100.00
14253;BME280;7210;51.502;10.722;2023-03-07T01:59:49;97741.47;;;1.51;100.00
14253;BME280;7210;51.502;10.722;2023-03-07T02:02:20;97725.28;;;1.49;100.00
14253;BME280;7210;51.502;10.722;2023-03-07T02:04:54;97710.88;;;1.46;100.00
14253;BME280;7210;51.502;10.722;2023-03-07T02:07:28;97703.81;;;1.53;100.00
14253;BME280;7210;51.502;10.722;2023-03-07T02:09:56;97689.41;;;1.51;100.00
14253;BME280;7210;51.502;10.722;2023-03-07T02:12:24;97670.53;;;1.55;100.00
14253;BME280;7210;51.502;10.722;2023-03-07T02:14:51;97668.94;;;1.54;100.00
14253;BME280;7210;51.502;10.722;2023-03-07T02:17:20;97659.84;;;1.63;100.00
14253;BME280;7210;51.502;10.722;2023-03-07T02:20:05;97644.06;;;1.58;100.00
14253;BME280;7210;51.502;10.722;2023-03-07T02:22:38;97636.47;;;1.57;100.00
14253;BME280;7210;51.502;10.722;2023-03-07T02:25:15;97607.78;;;1.45;100.00
14253;BME280;7210;51.502;10.722;2023-03-07T02:27:48;97624.50;;;1.56;100.00
14253;BME280;7210;51.502;10.722;2023-03-07T02:30:18;97613.97;;;1.62;100.00
14253;BME280;7210;51.502;10.722;2023-03-07T02:32:48;97610.81;;;1.60;100.00
14253;BME280;7210;51.502;10.722;2023-03-07T02:35:19;97606.19;;;1.62;100.00
14253;BME280;7210;51.502;10.722;2023-03-07T02:37:53;97595.31;;;1.65;100.00
14253;BME280;7210;51.502;10.722;2023-03-07T02:40:24;97586.72;;;1.65;100.00
14253;BME280;7210;51.502;10.722;2023-03-07T02:42:56;97581.50;;;1.65;100.00
14253;BME280;7210;51.502;10.722;2023-03-07T02:45:26;97576.53;;;1.63;100.00
14253;BME280;7210;51.502;10.722;2023-03-07T02:47:53;97575.50;;;1.64;100.00
14253;BME280;7210;51.502;10.722;2023-03-07T02:50:21;97572.91;;;1.64;100.00
14253;BME280;7210;51.502;10.722;2023-03-07T02:52:51;97567.84;;;1.69;100.00
14253;BME280;7210;51.502;10.722;2023-03-07T02:55:18;97566.59;;;1.72;100.00
14253;BME280;7210;51.502;10.722;2023-03-07T02:57:51;97560.03;;;1.69;100.00
14253;BME280;7210;51.502;10.722;2023-03-07T03:00:21;97559.00;;;1.70;100.00
14253;BME280;7210;51.502;10.722;2023-03-07T03:02:49;97562.63;;;1.69;100.00
14253;BME280;7210;51.502;10.722;2023-03-07T03:05:18;97557.41;;;1.69;100.00
14253;BME280;7210;51.502;10.722;2023-03-07T03:07:50;97548.59;;;1.70;100.00
14253;BME280;7210;51.502;10.722;2023-03-07T03:10:17;97547.34;;;1.73;100.00
14253;BME280;7210;51.502;10.722;2023-03-07T03:15:37;97531.38;;;1.69;100.00
14253;BME280;7210;51.502;10.722;2023-03-07T03:18:05;97537.59;;;1.68;100.00
14253;BME280;7210;51.502;10.722;2023-03-07T03:20:32;97530.56;;;1.69;100.00
14253;BME280;7210;51.502;10.722;2023-03-07T03:22:59;97528.22;;;1.67;100.00
14253;BME280;7210;51.502;10.722;2023-03-07T03:25:26;97533.06;;;1.64;100.00
14253;BME280;7210;51.502;10.722;2023-03-07T03:27:53;97532.25;;;1.63;100.00
14253;BME280;7210;51.502;10.722;2023-03-07T03:30:21;97537.25;;;1.65;100.00
14253;BME280;7210;51.502;10.722;2023-03-07T03:32:50;97535.88;;;1.62;100.00
14253;BME280;7210;51.502;10.722;2023-03-07T03:35:18;97544.72;;;1.61;100.00
14253;BME280;7210;51.502;10.722;2023-03-07T03:37:52;97547.88;;;1.63;100.00
14253;BME280;7210;51.502;10.722;2023-03-07T03:40:19;97550.47;;;1.63;100.00
14253;BME280;7210;51.502;10.722;2023-03-07T03:42:47;97549.03;;;1.67;100.00
14253;BME280;7210;51.502;10.722;2023-03-07T03:45:17;97529.97;;;1.55;100.00
14253;BME280;7210;51.502;10.722;2023-03-07T03:47:44;97548.59;;;1.70;100.00
14253;BME280;7210;51.502;10.722;2023-03-07T03:50:14;97552.00;;;1.71;100.00
14253;BME280;7210;51.502;10.722;2023-03-07T03:52:46;97547.56;;;1.71;100.00
14253;BME280;7210;51.502;10.722;2023-03-07T03:55:14;97547.72;;;1.76;100.00
14253;BME280;7210;51.502;10.722;2023-03-07T03:57:41;97548.84;;;1.80;100.00
14253;BME280;7210;51.502;10.722;2023-03-07T04:00:10;97548.84;;;1.80;100.00
14253;BME280;7210;51.502;10.722;2023-03-07T04:02:40;97540.00;;;1.81;100.00
14253;BME280;7210;51.502;10.722;2023-03-07T04:05:13;97537.53;;;1.86;100.00
14253;BME280;7210;51.502;10.722;2023-03-07T04:07:41;97536.75;;;1.86;100.00
14253;BME280;7210;51.502;10.722;2023-03-07T04:10:10;97533.50;;;1.90;100.00
14253;BME280;7210;51.502;10.722;2023-03-07T04:12:38;97530.66;;;1.92;100.00
14253;BME280;7210;51.502;10.722;2023-03-07T04:15:06;97526.81;;;1.94;100.00
14253;BME280;7210;51.502;10.722;2023-03-07T04:17:34;97522.63;;;1.93;100.00
14253;BME280;7210;51.502;10.722;2023-03-07T04:20:03;97521.38;;;1.96;100.00
14253;BME280;7210;51.502;10.722;2023-03-07T04:22:33;97520.16;;;1.98;100.00
14253;BME280;7210;51.502;10.722;2023-03-07T04:25:00;97512.00;;;1.95;100.00
14253;BME280;7210;51.502;10.722;2023-03-07T04:27:28;97502.91;;;1.97;100.00
14253;BME280;7210;51.502;10.722;2023-03-07T04:29:56;97506.34;;;2.09;100.00
14253;BME280;7210;51.502;10.722;2023-03-07T04:32:24;97500.25;;;2.15;100.00
14253;BME280;7210;51.502;10.722;2023-03-07T04:34:51;97498.66;;;2.14;100.00
14253;BME280;7210;51.502;10.722;2023-03-07T04:37:18;97485.03;;;2.12;100.00
14253;BME280;7210;51.502;10.722;2023-03-07T04:39:47;97486.75;;;2.18;100.00
14253;BME280;7210;51.502;10.722;2023-03-07T04:42:15;97479.94;;;2.17;100.00
14253;BME280;7210;51.502;10.722;2023-03-07T04:44:42;97479.41;;;2.15;100.00
14253;BME280;7210;51.502;10.722;2023-03-07T04:47:10;97475.31;;;2.19;100.00
14253;BME280;7210;51.502;10.722;2023-03-07T04:49:37;97477.47;;;2.22;100.00
14253;BME280;7210;51.502;10.722;2023-03-07T04:52:06;97476.00;;;2.26;100.00
14253;BME280;7210;51.502;10.722;2023-03-07T04:54:33;97447.66;;;2.07;100.00
14253;BME280;7210;51.502;10.722;2023-03-07T04:57:03;97470.44;;;2.23;100.00
14253;BME280;7210;51.502;10.722;2023-03-07T04:59:31;97469.41;;;2.24;100.00
14253;BME280;7210;51.502;10.722;2023-03-07T05:02:01;97472.34;;;2.27;100.00
14253;BME280;7210;51.502;10.722;2023-03-07T05:04:30;97477.91;;;2.31;100.00
14253;BME280;7210;51.502;10.722;2023-03-07T05:06:58;97467.84;;;2.34;100.00
14253;BME280;7210;51.502;10.722;2023-03-07T05:09:25;97471.47;;;2.33;100.00
14253;BME280;7210;51.502;10.722;2023-03-07T05:11:53;97463.09;;;2.31;100.00
14253;BME280;7210;51.502;10.722;2023-03-07T05:14:22;97456.03;;;2.32;100.00
14253;BME280;7210;51.502;10.722;2023-03-07T05:16:50;97464.19;;;2.35;100.00
14253;BME280;7210;51.502;10.722;2023-03-07T05:19:18;97465.78;;;2.36;100.00
14253;BME280;7210;51.502;10.722;2023-03-07T05:21:45;97451.41;;;2.34;100.00
14253;BME280;7210;51.502;10.722;2023-03-07T05:24:15;97443.81;;;2.32;100.00
14253;BME280;7210;51.502;10.722;2023-03-07T05:26:42;97441.00;;;2.34;100.00
14253;BME280;7210;51.502;10.722;2023-03-07T05:29:09;97440.19;;;2.33;100.00
14253;BME280;7210;51.502;10.722;2023-03-07T05:31:38;97438.13;;;2.35;100.00
14253;BME280;7210;51.502;10.722;2023-03-07T05:34:06;97448.13;;;2.38;100.00
14253;BME280;7210;51.502;10.722;2023-03-07T05:36:36;97447.78;;;2.35;100.00
14253;BME280;7210;51.502;10.722;2023-03-07T05:39:04;97438.94;;;2.36;100.00
14253;BME280;7210;51.502;10.722;2023-03-07T05:41:33;97439.06;;;2.29;100.00
14253;BME280;7210;51.502;10.722;2023-03-07T05:44:01;97437.47;;;2.28;100.00
14253;BME280;7210;51.502;10.722;2023-03-07T05:46:28;97442.22;;;2.31;100.00
14253;BME280;7210;51.502;10.722;2023-03-07T05:48:57;97449.03;;;2.32;100.00
14253;BME280;7210;51.502;10.722;2023-03-07T05:51:25;97446.75;;;2.36;100.00
14253;BME280;7210;51.502;10.722;2023-03-07T05:53:53;97440.19;;;2.33;100.00
14253;BME280;7210;51.502;10.722;2023-03-07T05:56:21;97449.50;;;2.29;100.00
14253;BME280;7210;51.502;10.722;2023-03-07T05:58:49;97448.22;;;2.32;100.00
14253;BME280;7210;51.502;10.722;2023-03-07T06:01:16;97446.41;;;2.32;100.00
14253;BME280;7210;51.502;10.722;2023-03-07T06:03:44;97454.13;;;2.39;100.00
14253;BME280;7210;51.502;10.722;2023-03-07T06:06:19;97456.50;;;2.40;100.00
14253;BME280;7210;51.502;10.722;2023-03-07T06:08:46;97456.50;;;2.40;100.00
14253;BME280;7210;51.502;10.722;2023-03-07T06:11:15;97455.47;;;2.41;100.00
14253;BME280;7210;51.502;10.722;2023-03-07T06:13:46;97452.88;;;2.41;100.00
14253;BME280;7210;51.502;10.722;2023-03-07T06:16:13;97448.47;;;2.42;100.00
14253;BME280;7210;51.502;10.722;2023-03-07T06:18:41;97460.81;;;2.46;100.00
14253;BME280;7210;51.502;10.722;2023-03-07T06:21:13;97441.88;;;2.39;100.00
14253;BME280;7210;51.502;10.722;2023-03-07T06:23:45;97456.72;;;2.50;100.00
14253;BME280;7210;51.502;10.722;2023-03-07T06:26:17;97457.06;;;2.54;100.00
14253;BME280;7210;51.502;10.722;2023-03-07T06:28:48;97450.59;;;2.56;100.00
14253;BME280;7210;51.502;10.722;2023-03-07T06:31:18;97462.38;;;2.59;100.00
14253;BME280;7210;51.502;10.722;2023-03-07T06:33:46;97455.13;;;2.61;100.00
14253;BME280;7210;51.502;10.722;2023-03-07T06:36:16;97460.47;;;2.66;100.00
14253;BME280;7210;51.502;10.722;2023-03-07T06:38:48;97456.34;;;2.70;100.00
14253;BME280;7210;51.502;10.722;2023-03-07T06:41:16;97473.47;;;2.77;100.00
14253;BME280;7210;51.502;10.722;2023-03-07T06:43:44;97470.72;;;2.84;100.00
14253;BME280;7210;51.502;10.722;2023-03-07T06:46:12;97461.19;;;2.89;100.00
14253;BME280;7210;51.502;10.722;2023-03-07T06:48:42;97465.81;;;2.99;100.00
14253;BME280;7210;51.502;10.722;2023-03-07T06:51:14;97464.09;;;3.04;100.00
14253;BME280;7210;51.502;10.722;2023-03-07T06:53:43;97459.78;;;3.10;100.00
14253;BME280;7210;51.502;10.722;2023-03-07T06:56:12;97454.31;;;3.11;100.00
14253;BME280;7210;51.502;10.722;2023-03-07T06:58:40;97456.50;;;3.14;100.00
14253;BME280;7210;51.502;10.722;2023-03-07T07:01:15;97455.53;;;3.20;100.00
14253;BME280;7210;51.502;10.722;2023-03-07T07:03:46;97451.47;;;3.24;100.00
14253;BME280;7210;51.502;10.722;2023-03-07T07:06:14;97450.75;;;3.29;100.00
14253;BME280;7210;51.502;10.722;2023-03-07T07:08:41;97438.25;;;3.31;100.00
14253;BME280;7210;51.502;10.722;2023-03-07T07:11:10;97446.97;;;3.36;100.00
14253;BME280;7210;51.502;10.722;2023-03-07T07:13:39;97439.72;;;3.38;100.00
14253;BME280;7210;51.502;10.722;2023-03-07T07:16:09;97437.97;;;3.44;100.00
14253;BME280;7210;51.502;10.722;2023-03-07T07:18:38;97435.91;;;3.46;100.00
14253;BME280;7210;51.502;10.722;2023-03-07T07:21:07;97435.31;;;3.55;100.00
14253;BME280;7210;51.502;10.722;2023-03-07T07:23:34;97432.22;;;3.58;100.00
14253;BME280;7210;51.502;10.722;2023-03-07T07:26:04;97427.00;;;3.58;100.00
14253;BME280;7210;51.502;10.722;2023-03-07T07:28:32;97415.06;;;3.62;100.00
14253;BME280;7210;51.502;10.722;2023-03-07T07:31:01;97422.91;;;3.62;100.00
14253;BME280;7210;51.502;10.722;2023-03-07T07:33:30;97420.94;;;3.69;100.00
14253;BME280;7210;51.502;10.722;2023-03-07T07:35:57;97394.06;;;3.57;100.00
14253;BME280;7210;51.502;10.722;2023-03-07T07:38:27;97418.63;;;3.72;100.00
14253;BME280;7210;51.502;10.722;2023-03-07T07:40:54;97423.69;;;3.79;100.00
14253;BME280;7210;51.502;10.722;2023-03-07T07:43:23;97413.72;;;3.76;100.00
14253;BME280;7210;51.502;10.722;2023-03-07T07:46:10;97420.59;;;3.82;100.00
14253;BME280;7210;51.502;10.722;2023-03-07T07:48:37;97419.03;;;3.81;100.00
14253;BME280;7210;51.502;10.722;2023-03-07T07:51:05;97440.56;;;3.88;100.00
14253;BME280;7210;51.502;10.722;2023-03-07T07:53:35;97425.19;;;3.91;100.00
14253;BME280;7210;51.502;10.722;2023-03-07T07:56:03;97432.56;;;3.94;100.00
14253;BME280;7210;51.502;10.722;2023-03-07T07:58:31;97428.94;;;3.95;100.00
14253;BME280;7210;51.502;10.722;2023-03-07T08:01:00;97419.34;;;4.01;100.00
14253;BME280;7210;51.502;10.722;2023-03-07T08:03:28;97419.34;;;4.01;100.00
14253;BME280;7210;51.502;10.722;2023-03-07T08:05:56;97429.63;;;4.07;100.00
14253;BME280;7210;51.502;10.722;2023-03-07T08:08:23;97425.84;;;4.15;100.00
14253;BME280;7210;51.502;10.722;2023-03-07T08:10:50;97425.91;;;4.20;100.00
14253;BME280;7210;51.502;10.722;2023-03-07T08:13:18;97436.56;;;4.35;100.00
14253;BME280;7210;51.502;10.722;2023-03-07T08:15:45;97441.81;;;4.35;100.00
14253;BME280;7210;51.502;10.722;2023-03-07T08:18:12;97438.31;;;4.46;100.00
14253;BME280;7210;51.502;10.722;2023-03-07T08:20:41;97435.88;;;4.61;100.00
14253;BME280;7210;51.502;10.722;2023-03-07T08:23:08;97436.81;;;4.71;100.00
14253;BME280;7210;51.502;10.722;2023-03-07T08:25:36;97429.53;;;4.73;100.00
14253;BME280;7210;51.502;10.722;2023-03-07T08:28:04;97414.06;;;4.72;100.00
14253;BME280;7210;51.502;10.722;2023-03-07T08:30:33;97418.63;;;4.81;100.00
14253;BME280;7210;51.502;10.722;2023-03-07T08:33:01;97408.50;;;4.90;100.00
14253;BME280;7210;51.502;10.722;2023-03-07T08:35:30;97395.38;;;4.85;100.00
14253;BME280;7210;51.502;10.722;2023-03-07T08:37:58;97415.56;;;5.11;100.00
14253;BME280;7210;51.502;10.722;2023-03-07T08:40:27;97412.00;;;5.22;100.00
14253;BME280;7210;51.502;10.722;2023-03-07T08:42:54;97396.28;;;5.17;100.00
14253;BME280;7210;51.502;10.722;2023-03-07T08:45:22;97402.03;;;5.19;100.00
14253;BME280;7210;51.502;10.722;2023-03-07T08:47:51;97384.75;;;5.18;100.00
14253;BME280;7210;51.502;10.722;2023-03-07T08:50:20;97398.97;;;5.27;100.00
14253;BME280;7210;51.502;10.722;2023-03-07T08:52:47;97391.13;;;5.27;100.00
14253;BME280;7210;51.502;10.722;2023-03-07T08:55:16;97396.97;;;5.34;100.00
14253;BME280;7210;51.502;10.722;2023-03-07T08:57:43;97396.41;;;5.32;100.00
14253;BME280;7210;51.502;10.722;2023-03-07T09:00:13;97383.31;;;5.32;100.00
14253;BME280;7210;51.502;10.722;2023-03-07T09:02:41;97402.06;;;5.45;100.00
14253;BME280;7210;51.502;10.722;2023-03-07T09:05:08;97410.06;;;5.60;100.00
14253;BME280;7210;51.502;10.722;2023-03-07T09:07:35;97415.59;;;5.64;99.91
14253;BME280;7210;51.502;10.722;2023-03-07T09:10:03;97406.31;;;5.51;99.49
14253;BME280;7210;51.502;10.722;2023-03-07T09:12:33;97394.78;;;5.52;99.23
14253;BME280;7210;51.502;10.722;2023-03-07T09:15:00;97400.31;;;5.56;99.04
14253;BME280;7210;51.502;10.722;2023-03-07T09:17:28;97406.69;;;5.65;99.14
14253;BME280;7210;51.502;10.722;2023-03-07T09:19:56;97398.00;;;5.59;98.78
14253;BME280;7210;51.502;10.722;2023-03-07T09:22:23;97406.69;;;5.65;98.85
14253;BME280;7210;51.502;10.722;2023-03-07T09:24:50;97410.94;;;5.71;98.47
14253;BME280;7210;51.502;10.722;2023-03-07T09:27:17;97400.94;;;5.68;98.43
14253;BME280;7210;51.502;10.722;2023-03-07T09:29:46;97384.91;;;5.64;98.39
14253;BME280;7210;51.502;10.722;2023-03-07T09:32:13;97393.03;;;5.63;98.00
14253;BME280;7210;51.502;10.722;2023-03-07T09:34:41;97393.53;;;5.60;97.88
14253;BME280;7210;51.502;10.722;2023-03-07T09:37:08;97409.34;;;5.70;98.05
14253;BME280;7210;51.502;10.722;2023-03-07T09:39:36;97401.53;;;5.75;98.03
14253;BME280;7210;51.502;10.722;2023-03-07T09:42:11;97412.63;;;5.82;98.19
14253;BME280;7210;51.502;10.722;2023-03-07T09:45:20;97432.75;;;6.08;98.08
14253;BME280;7210;51.502;10.722;2023-03-07T09:48:37;97420.25;;;6.20;97.29
14253;BME280;7210;51.502;10.722;2023-03-07T09:51:17;97415.59;;;6.27;96.80
14253;BME280;7210;51.502;10.722;2023-03-07T09:53:50;97405.66;;;6.34;95.99
14253;BME280;7210;51.502;10.722;2023-03-07T09:56:23;97398.91;;;6.43;95.47
14253;BME280;7210;51.502;10.722;2023-03-07T09:59:00;97406.03;;;6.57;94.99
14253;BME280;7210;51.502;10.722;2023-03-07T10:01:33;97391.88;;;6.58;94.88
14253;BME280;7210;51.502;10.722;2023-03-07T10:04:05;97401.66;;;6.68;93.90
14253;BME280;7210;51.502;10.722;2023-03-07T10:06:42;97385.41;;;6.71;93.79
14253;BME280;7210;51.502;10.722;2023-03-07T10:09:16;97378.06;;;6.83;93.38
14253;BME280;7210;51.502;10.722;2023-03-07T10:12:30;97404.94;;;7.05;93.50
14253;BME280;7210;51.502;10.722;2023-03-07T10:15:32;97385.44;;;6.81;93.51
14253;BME280;7210;51.502;10.722;2023-03-07T10:18:40;97363.69;;;6.90;92.86
14253;BME280;7210;51.502;10.722;2023-03-07T10:21:21;97356.56;;;6.81;92.35
14253;BME280;7210;51.502;10.722;2023-03-07T10:24:21;97372.06;;;6.82;92.52
14253;BME280;7210;51.502;10.722;2023-03-07T10:26:59;97432.34;;;7.28;92.34
14253;BME280;7210;51.502;10.722;2023-03-07T10:29:37;97386.09;;;7.28;91.36
14253;BME280;7210;51.502;10.722;2023-03-07T10:32:20;97347.22;;;7.25;90.49
14253;BME280;7210;51.502;10.722;2023-03-07T10:34:56;97313.28;;;7.08;90.18
14253;BME280;7210;51.502;10.722;2023-03-07T10:37:39;97317.50;;;7.09;89.80
14253;BME280;7210;51.502;10.722;2023-03-07T10:40:21;97298.81;;;6.96;89.54
14253;BME280;7210;51.502;10.722;2023-03-07T10:42:50;97245.16;;;6.62;88.93
14253;BME280;7210;51.502;10.722;2023-03-07T10:45:18;97267.22;;;6.56;89.04
14253;BME280;7210;51.502;10.722;2023-03-07T10:47:45;97274.50;;;6.44;89.52
14253;BME280;7210;51.502;10.722;2023-03-07T10:50:30;97279.22;;;6.37;89.23
14253;BME280;7210;51.502;10.722;2023-03-07T10:53:03;97286.56;;;6.35;89.72
14253;BME280;7210;51.502;10.722;2023-03-07T10:55:39;97282.78;;;6.16;89.62
14253;BME280;7210;51.502;10.722;2023-03-07T10:58:21;97325.88;;;6.30;89.73
14253;BME280;7210;51.502;10.722;2023-03-07T11:01:15;97344.28;;;6.35;90.02
14253;BME280;7210;51.502;10.722;2023-03-07T11:03:48;97373.19;;;6.45;90.59
14253;BME280;7210;51.502;10.722;2023-03-07T11:06:34;97342.75;;;6.44;90.43
14253;BME280;7210;51.502;10.722;2023-03-07T11:09:24;97362.47;;;6.56;90.27
14253;BME280;7210;51.502;10.722;2023-03-07T11:11:55;97309.69;;;6.43;89.31
14253;BME280;7210;51.502;10.722;2023-03-07T11:14:24;97313.59;;;6.40;89.32
14253;BME280;7210;51.502;10.722;2023-03-07T11:16:55;97321.75;;;6.44;88.93
14253;BME280;7210;51.502;10.722;2023-03-07T11:19:34;97297.56;;;6.32;88.69
14253;BME280;7210;51.502;10.722;2023-03-07T11:22:17;97277.53;;;6.11;88.88
14253;BME280;7210;51.502;10.722;2023-03-07T11:24:57;97262.22;;;5.93;88.75
14253;BME280;7210;51.502;10.722;2023-03-07T11:27:36;97326.28;;;6.07;89.33
14253;BME280;7210;51.502;10.722;2023-03-07T11:30:17;97328.88;;;6.02;89.67
14253;BME280;7210;51.502;10.722;2023-03-07T11:32:55;97325.66;;;5.90;89.92
14253;BME280;7210;51.502;10.722;2023-03-07T11:35:52;97345.34;;;5.92;90.16
14253;BME280;7210;51.502;10.722;2023-03-07T11:38:35;97347.91;;;5.87;90.54
14253;BME280;7210;51.502;10.722;2023-03-07T11:41:10;97351.28;;;5.83;90.28
14253;BME280;7210;51.502;10.722;2023-03-07T11:43:56;97362.88;;;5.87;90.05
14253;BME280;7210;51.502;10.722;2023-03-07T11:46:40;97371.31;;;5.94;90.27
14253;BME280;7210;51.502;10.722;2023-03-07T11:49:25;97381.31;;;6.02;90.31
14253;BME280;7210;51.502;10.722;2023-03-07T11:52:12;97377.91;;;6.01;90.30
14253;BME280;7210;51.502;10.722;2023-03-07T11:55:01;97369.81;;;6.08;90.01
14253;BME280;7210;51.502;10.722;2023-03-07T11:57:59;97356.69;;;6.08;89.58
14253;BME280;7210;51.502;10.722;2023-03-07T12:00:35;97371.94;;;6.16;89.64
14253;BME280;7210;51.502;10.722;2023-03-07T12:03:40;97363.56;;;6.14;89.49
14253;BME280;7210;51.502;10.722;2023-03-07T12:06:27;97356.50;;;6.14;89.66
14253;BME280;7210;51.502;10.722;2023-03-07T12:09:17;97372.75;;;6.16;89.91
14253;BME280;7210;51.502;10.722;2023-03-07T12:12:20;97360.34;;;6.07;89.54
14253;BME280;7210;51.502;10.722;2023-03-07T12:15:04;97358.31;;;6.09;89.37
14253;BME280;7210;51.502;10.722;2023-03-07T12:17:51;97355.88;;;6.02;89.22
14253;BME280;7210;51.502;10.722;2023-03-07T12:20:35;97376.59;;;6.04;89.45
14253;BME280;7210;51.502;10.722;2023-03-07T12:23:12;97400.25;;;6.09;89.60
14253;BME280;7210;51.502;10.722;2023-03-07T12:25:45;97393.91;;;6.05;90.12
14253;BME280;7210;51.502;10.722;2023-03-07T12:28:22;97388.09;;;5.93;89.95
14253;BME280;7210;51.502;10.722;2023-03-07T12:31:04;97395.84;;;5.83;90.08
14253;BME280;7210;51.502;10.722;2023-03-07T12:33:57;97413.09;;;5.79;90.77
14253;BME280;7210;51.502;10.722;2023-03-07T12:36:33;97433.47;;;5.72;90.56
14253;BME280;7210;51.502;10.722;2023-03-07T12:39:17;97299.25;;;4.54;90.80
14253;BME280;7210;51.502;10.722;2023-03-07T12:41:56;97309.28;;;3.81;91.81
14253;BME280;7210;51.502;10.722;2023-03-07T12:44:38;97351.22;;;3.25;93.53
14253;BME280;7210;51.502;10.722;2023-03-07T12:47:16;97413.31;;;2.95;95.02
14253;BME280;7210;51.502;10.722;2023-03-07T12:49:54;97464.50;;;2.85;96.25
14253;BME280;7210;51.502;10.722;2023-03-07T12:52:37;97506.38;;;2.78;97.77
14253;BME280;7210;51.502;10.722;2023-03-07T12:55:17;97537.31;;;2.75;99.04
14253;BME280;7210;51.502;10.722;2023-03-07T12:57:56;97551.59;;;2.72;100.00
14253;BME280;7210;51.502;10.722;2023-03-07T13:00:27;97570.31;;;2.69;100.00
14253;BME280;7210;51.502;10.722;2023-03-07T13:03:01;97579.94;;;2.69;100.00
14253;BME280;7210;51.502;10.722;2023-03-07T13:05:30;97585.97;;;2.69;100.00
14253;BME280;7210;51.502;10.722;2023-03-07T13:08:00;97614.06;;;2.67;100.00
14253;BME280;7210;51.502;10.722;2023-03-07T13:10:30;97600.13;;;2.62;100.00
14253;BME280;7210;51.502;10.722;2023-03-07T13:12:57;97610.00;;;2.60;100.00
14253;BME280;7210;51.502;10.722;2023-03-07T13:16:01;97625.06;;;2.58;100.00
14253;BME280;7210;51.502;10.722;2023-03-07T13:18:30;97629.94;;;2.54;100.00
14253;BME280;7210;51.502;10.722;2023-03-07T13:21:39;97626.84;;;2.46;100.00
14253;BME280;7210;51.502;10.722;2023-03-07T13:24:34;97640.56;;;2.41;100.00
14253;BME280;7210;51.502;10.722;2023-03-07T13:27:12;97641.44;;;2.35;100.00
14253;BME280;7210;51.502;10.722;2023-03-07T13:30:15;97647.56;;;2.29;100.00
14253;BME280;7210;51.502;10.722;2023-03-07T13:33:24;97644.81;;;2.24;100.00
14253;BME280;7210;51.502;10.722;2023-03-07T13:35:55;97643.66;;;2.20;100.00